Time;durP1;ratioP1;P1;durP2;ratioP2;P2;SDS_P1;SDS_P2;PMS_P1;PMS_P2;Temp;Humidity;BMP_temperature;BMP_pressure;BME280_temperature;BME280_humidity;BME280_pressure;Samples;Min_cycle;Max_cycle;Signal;HPM_P1;HPM_P2
2023/04/05 00:01:24;;;;;;;20.70;10.93;;;3.00;99.90;;;;;;5013498;28;20030;-51
2023/04/05 00:03:53;;;;;;;24.50;11.80;;;3.10;99.90;;;;;;5018502;28;20025;-48
2023/04/05 00:06:27;;;;;;;22.02;11.38;;;2.90;99.90;;;;;;5012966;28;20108;-47
2023/04/05 00:09:01;;;;;;;26.30;11.85;;;2.90;99.90;;;;;;5019327;28;20031;-47
2023/04/05 00:11:31;;;;;;;22.95;12.27;;;2.80;99.90;;;;;;5014543;28;20022;-50
2023/04/05 00:13:59;;;;;;;24.83;11.57;;;2.80;99.90;;;;;;5019114;28;20037;-49
2023/04/05 00:16:26;;;;;;;23.05;10.98;;;2.70;99.90;;;;;;5018196;28;20037;-50
2023/04/05 00:18:53;;;;;;;20.60;10.88;;;2.70;99.90;;;;;;5016693;28;20048;-47
2023/04/05 00:21:22;;;;;;;24.23;11.38;;;2.60;99.90;;;;;;5015910;28;20483;-48
2023/04/05 00:23:52;;;;;;;20.73;11.88;;;2.60;99.90;;;;;;5013941;28;20060;-47
2023/04/05 00:26:18;;;;;;;23.60;11.45;;;2.50;99.90;;;;;;5016785;28;20026;-49
2023/04/05 00:28:44;;;;;;;25.65;12.18;;;2.50;99.90;;;;;;5015311;28;20026;-48
2023/04/05 00:31:11;;;;;;;18.88;10.50;;;2.50;99.90;;;;;;5033847;28;20030;-50
2023/04/05 00:33:36;;;;;;;22.70;10.95;;;2.50;99.90;;;;;;5016050;28;20072;-49
2023/04/05 00:36:17;;;;;;;20.70;10.68;;;2.40;99.90;;;;;;5014043;28;20018;-48
2023/04/05 00:38:44;;;;;;;30.02;12.50;;;2.40;99.90;;;;;;5014647;28;20072;-49
2023/04/05 00:41:10;;;;;;;22.42;11.43;;;2.30;99.90;;;;;;5016160;28;20096;-49
2023/04/05 00:43:36;;;;;;;27.25;12.20;;;2.30;99.90;;;;;;5016186;28;20069;-49
2023/04/05 00:46:04;;;;;;;25.98;13.18;;;2.30;99.90;;;;;;5016949;28;20726;-49
2023/04/05 00:48:30;;;;;;;21.17;11.23;;;2.20;99.90;;;;;;5021896;28;20014;-49
2023/04/05 00:50:57;;;;;;;28.75;12.57;;;2.10;99.90;;;;;;5015376;28;20029;-50
2023/04/05 00:53:23;;;;;;;24.77;12.55;;;2.10;99.90;;;;;;5014941;28;20083;-51
2023/04/05 00:55:50;;;;;;;28.60;12.68;;;2.10;99.90;;;;;;5015918;28;20030;-50
2023/04/05 00:58:18;;;;;;;28.23;12.82;;;2.00;99.90;;;;;;5016729;28;20014;-55
2023/04/05 01:01:05;;;;;;;22.70;11.68;;;2.00;99.90;;;;;;5011969;28;20034;-52
2023/04/05 01:03:33;;;;;;;25.33;11.80;;;1.90;99.90;;;;;;5018164;28;20056;-52
2023/04/05 01:06:31;;;;;;;28.08;12.23;;;1.90;99.90;;;;;;5012296;28;20477;-52
2023/04/05 01:09:16;;;;;;;19.40;10.80;;;1.70;99.90;;;;;;5017649;28;20075;-52
2023/04/05 01:11:46;;;;;;;22.10;10.80;;;1.60;99.90;;;;;;5013568;28;20040;-49
2023/04/05 01:14:11;;;;;;;24.92;11.32;;;1.50;99.90;;;;;;5017455;28;20029;-48
2023/04/05 01:16:40;;;;;;;24.13;11.45;;;1.50;99.90;;;;;;5016476;28;20041;-49
2023/04/05 01:19:08;;;;;;;24.50;11.68;;;1.60;99.90;;;;;;5015550;28;20485;-50
2023/04/05 01:21:36;;;;;;;24.23;11.70;;;1.60;99.90;;;;;;5013800;28;20036;-50
2023/04/05 01:24:33;;;;;;;29.40;12.93;;;1.70;99.90;;;;;;5021987;28;20540;-48
2023/04/05 01:27:02;;;;;;;25.85;12.18;;;1.70;99.90;;;;;;5015349;28;20025;-49
2023/04/05 01:29:48;;;;;;;25.02;11.85;;;1.70;99.90;;;;;;5014523;28;20179;-50
2023/04/05 01:32:43;;;;;;;21.42;11.60;;;1.80;99.90;;;;;;5017555;28;20030;-50
2023/04/05 01:35:28;;;;;;;23.83;11.63;;;1.80;99.90;;;;;;5018412;28;20505;-51
2023/04/05 01:37:59;;;;;;;28.00;11.50;;;1.80;99.90;;;;;;5014459;28;20018;-50
2023/04/05 01:40:26;;;;;;;29.23;11.30;;;1.80;99.90;;;;;;4995214;28;20049;-48
2023/04/05 01:42:51;;;;;;;21.38;11.02;;;1.70;99.90;;;;;;5021801;28;20033;-53
2023/04/05 01:45:17;;;;;;;20.80;11.27;;;1.60;99.90;;;;;;5019433;28;20026;-49
2023/04/05 01:47:43;;;;;;;20.58;11.25;;;1.60;99.90;;;;;;5020532;28;20068;-52
2023/04/05 01:50:09;;;;;;;26.50;11.13;;;1.60;99.90;;;;;;5017532;28;20044;-48
2023/04/05 01:52:38;;;;;;;23.23;11.70;;;1.50;99.90;;;;;;5012647;28;20026;-53
2023/04/05 01:55:04;;;;;;;25.85;12.10;;;1.50;99.90;;;;;;5014483;28;20040;-49
2023/04/05 01:57:29;;;;;;;27.38;13.30;;;1.50;99.90;;;;;;5013382;28;20112;-53
2023/04/05 01:59:55;;;;;;;30.10;13.65;;;1.50;99.90;;;;;;5013224;28;20029;-47
2023/04/05 02:02:21;;;;;;;25.40;13.65;;;1.50;99.90;;;;;;5020525;28;20056;-49
2023/04/05 02:04:50;;;;;;;24.60;13.23;;;1.50;99.90;;;;;;5014459;28;20448;-52
2023/04/05 02:07:16;;;;;;;27.08;13.50;;;1.40;99.90;;;;;;5014025;28;20033;-49
2023/04/05 02:09:43;;;;;;;31.02;14.43;;;1.30;99.90;;;;;;5010561;28;20052;-49
2023/04/05 02:12:09;;;;;;;33.08;14.75;;;1.40;99.90;;;;;;5019369;28;20029;-48
2023/04/05 02:14:34;;;;;;;30.80;14.68;;;1.30;99.90;;;;;;5029279;28;20032;-49
2023/04/05 02:17:02;;;;;;;29.58;14.63;;;1.30;99.90;;;;;;5029059;28;20162;-49
2023/04/05 02:19:30;;;;;;;37.08;15.40;;;1.30;99.90;;;;;;5029669;28;20535;-48
2023/04/05 02:21:56;;;;;;;38.92;14.75;;;1.30;99.90;;;;;;5031799;28;20147;-49
2023/04/05 02:24:21;;;;;;;31.38;15.57;;;1.30;99.90;;;;;;5031721;28;20144;-50
2023/04/05 02:26:47;;;;;;;34.28;13.85;;;1.30;99.90;;;;;;5030271;28;20039;-53
2023/04/05 02:29:13;;;;;;;30.33;14.63;;;1.30;99.90;;;;;;5029923;28;20033;-52
2023/04/05 02:31:38;;;;;;;28.48;14.00;;;1.30;99.90;;;;;;5029078;28;20041;-50
2023/04/05 02:34:07;;;;;;;27.48;13.65;;;1.30;99.90;;;;;;5030109;28;20064;-47
2023/04/05 02:36:33;;;;;;;31.95;12.90;;;1.30;99.90;;;;;;5030266;28;20487;-49
2023/04/05 02:38:59;;;;;;;24.48;13.10;;;1.30;99.90;;;;;;5038565;28;20049;-56
2023/04/05 02:41:25;;;;;;;26.30;13.82;;;1.20;99.90;;;;;;5029996;28;20041;-50
2023/04/05 02:43:50;;;;;;;32.63;13.88;;;1.20;99.90;;;;;;5029893;28;20067;-49
2023/04/05 02:46:16;;;;;;;21.05;12.75;;;1.20;99.90;;;;;;5029128;28;20068;-53
2023/04/05 02:48:42;;;;;;;30.98;13.68;;;1.20;99.90;;;;;;5029668;28;20353;-55
2023/04/05 02:51:08;;;;;;;30.10;14.00;;;1.10;99.90;;;;;;5030129;28;20037;-48
2023/04/05 02:53:34;;;;;;;28.60;13.00;;;1.10;99.90;;;;;;5030023;28;20022;-52
2023/04/05 02:55:59;;;;;;;27.63;13.85;;;1.20;99.90;;;;;;5029090;28;20041;-46
2023/04/05 02:58:25;;;;;;;28.63;12.50;;;1.10;99.90;;;;;;5029892;28;20021;-49
2023/04/05 03:00:53;;;;;;;27.00;13.52;;;1.10;99.90;;;;;;5020506;28;20404;-52
2023/04/05 03:03:19;;;;;;;29.33;12.13;;;1.10;99.90;;;;;;5033575;28;20040;-48
2023/04/05 03:05:47;;;;;;;22.17;12.15;;;1.20;99.90;;;;;;5033225;28;20456;-51
2023/04/05 03:08:17;;;;;;;23.50;12.02;;;1.10;99.90;;;;;;5033888;28;20041;-52
2023/04/05 03:10:45;;;;;;;23.92;11.52;;;1.10;99.90;;;;;;5033585;28;20063;-53
2023/04/05 03:13:10;;;;;;;20.33;11.52;;;1.10;99.90;;;;;;5033319;28;20033;-50
2023/04/05 03:15:36;;;;;;;27.50;12.95;;;1.10;99.90;;;;;;5033245;28;20026;-47
2023/04/05 03:18:02;;;;;;;27.13;11.93;;;1.10;99.90;;;;;;5033453;28;20033;-50
2023/04/05 03:20:28;;;;;;;25.15;13.90;;;1.20;99.90;;;;;;5048882;28;20033;-53
2023/04/05 03:22:53;;;;;;;29.40;14.25;;;1.20;99.90;;;;;;5033204;28;20381;-49
2023/04/05 03:25:19;;;;;;;25.48;13.40;;;1.30;99.90;;;;;;5031944;28;20033;-56
2023/04/05 03:27:45;;;;;;;25.38;13.02;;;1.30;99.90;;;;;;5032804;28;20025;-51
2023/04/05 03:30:11;;;;;;;26.63;13.32;;;1.50;99.90;;;;;;5032533;28;20124;-49
2023/04/05 03:32:36;;;;;;;29.50;14.30;;;1.60;99.90;;;;;;5032528;28;20411;-52
2023/04/05 03:35:03;;;;;;;29.75;13.88;;;1.60;99.90;;;;;;5021700;28;20030;-55
2023/04/05 03:37:28;;;;;;;27.60;13.45;;;1.70;99.90;;;;;;5033252;28;20021;-50
2023/04/05 03:39:54;;;;;;;30.25;15.48;;;1.70;99.90;;;;;;5033017;28;20056;-53
2023/04/05 03:42:19;;;;;;;31.27;16.17;;;1.70;99.90;;;;;;5032963;28;20476;-50
2023/04/05 03:44:47;;;;;;;35.38;15.43;;;1.70;99.90;;;;;;5032647;28;20041;-49
2023/04/05 03:47:12;;;;;;;35.92;16.17;;;1.80;99.90;;;;;;5030879;28;20112;-52
2023/04/05 03:49:38;;;;;;;30.75;15.68;;;1.80;99.90;;;;;;5032941;28;20121;-51
2023/04/05 03:52:04;;;;;;;32.47;15.60;;;1.90;99.90;;;;;;5032786;28;20029;-49
2023/04/05 03:54:29;;;;;;;34.33;17.10;;;1.90;99.90;;;;;;5033122;28;20681;-49
2023/04/05 03:56:55;;;;;;;35.47;16.83;;;2.00;99.90;;;;;;5032018;28;20093;-50
2023/04/05 03:59:21;;;;;;;34.45;17.98;;;2.00;99.90;;;;;;5032129;28;20116;-50
2023/04/05 04:01:46;;;;;;;38.90;18.02;;;2.10;99.90;;;;;;5030711;28;20663;-49
2023/04/05 04:04:12;;;;;;;31.88;17.35;;;2.20;99.90;;;;;;5032785;28;20024;-49
2023/04/05 04:06:38;;;;;;;39.85;17.95;;;2.20;99.90;;;;;;5032559;28;20079;-49
2023/04/05 04:09:04;;;;;;;33.53;16.92;;;2.20;99.90;;;;;;5032845;28;20111;-52
2023/04/05 04:11:30;;;;;;;33.03;17.75;;;2.20;99.90;;;;;;5032201;28;20107;-49
2023/04/05 04:13:56;;;;;;;32.20;16.30;;;2.30;99.90;;;;;;5030692;28;20068;-49
2023/04/05 04:16:21;;;;;;;34.90;16.95;;;2.20;99.90;;;;;;5031946;28;20021;-50
2023/04/05 04:18:47;;;;;;;30.38;16.23;;;2.30;99.90;;;;;;5031921;28;20074;-49
2023/04/05 04:21:15;;;;;;;26.35;14.48;;;2.30;99.90;;;;;;5032233;28;20192;-50
2023/04/05 04:23:44;;;;;;;28.92;14.48;;;2.30;99.90;;;;;;5032263;28;20022;-51
2023/04/05 04:26:10;;;;;;;25.98;13.98;;;2.30;99.90;;;;;;5031317;28;20044;-52
2023/04/05 04:28:37;;;;;;;26.48;14.70;;;2.20;99.90;;;;;;5030877;28;20025;-52
2023/04/05 04:31:03;;;;;;;29.60;15.30;;;2.30;99.90;;;;;;5030816;28;20445;-47
2023/04/05 04:33:30;;;;;;;26.23;14.07;;;2.20;99.90;;;;;;5031047;28;20159;-49
2023/04/05 04:35:55;;;;;;;31.15;15.50;;;2.20;99.90;;;;;;5031893;28;20033;-49
2023/04/05 04:38:24;;;;;;;31.02;15.55;;;2.20;99.90;;;;;;5031477;28;20025;-47
2023/04/05 04:40:52;;;;;;;29.17;14.98;;;2.20;99.90;;;;;;5031410;28;20058;-45
2023/04/05 04:43:25;;;;;;;32.72;15.25;;;2.30;99.90;;;;;;5031568;28;20095;-48
2023/04/05 04:45:53;;;;;;;27.58;14.45;;;2.30;99.90;;;;;;5031168;28;20043;-49
2023/04/05 04:48:19;;;;;;;30.08;14.07;;;2.30;99.90;;;;;;5030598;28;20503;-49
2023/04/05 04:50:47;;;;;;;28.85;14.68;;;2.20;99.90;;;;;;5031667;28;20040;-50
2023/04/05 04:53:16;;;;;;;28.85;14.45;;;2.30;99.90;;;;;;5031006;28;20022;-50
2023/04/05 04:55:41;;;;;;;34.72;14.30;;;2.30;99.90;;;;;;5030909;28;20025;-49
2023/04/05 04:58:09;;;;;;;32.03;13.80;;;2.30;99.90;;;;;;5031044;28;20083;-49
2023/04/05 05:00:38;;;;;;;27.38;13.80;;;2.30;99.90;;;;;;5018539;28;20374;-50
2023/04/05 05:03:03;;;;;;;28.33;13.75;;;2.40;99.90;;;;;;5030869;28;20116;-49
2023/04/05 05:05:29;;;;;;;22.98;13.00;;;2.30;99.90;;;;;;5046270;28;20121;-52
2023/04/05 05:07:55;;;;;;;28.20;13.48;;;2.30;99.90;;;;;;5030398;28;20025;-51
2023/04/05 05:10:20;;;;;;;25.92;13.20;;;2.30;99.90;;;;;;5031405;28;20362;-52
2023/04/05 05:12:47;;;;;;;26.90;12.77;;;2.30;99.90;;;;;;5031119;28;20052;-54
2023/04/05 05:15:13;;;;;;;27.30;13.82;;;2.20;99.90;;;;;;5030949;28;20055;-48
2023/04/05 05:17:39;;;;;;;24.20;13.30;;;2.30;99.90;;;;;;5030697;28;20021;-49
2023/04/05 05:20:09;;;;;;;25.08;12.13;;;2.30;99.90;;;;;;5030648;28;20037;-54
2023/04/05 05:22:35;;;;;;;;;;;2.30;99.90;;;;;;5031724;28;20017;-47
2023/04/05 05:25:00;;;;;;;26.55;12.65;;;2.30;99.90;;;;;;5030979;28;19949;-49
2023/04/05 05:27:27;;;;;;;28.92;15.27;;;2.40;99.90;;;;;;5031052;28;20445;-48
2023/04/05 05:29:52;;;;;;;29.23;13.90;;;2.40;99.90;;;;;;5031058;28;20025;-49
2023/04/05 05:32:18;;;;;;;24.38;14.40;;;2.40;99.90;;;;;;5030655;28;20130;-51
2023/04/05 05:34:44;;;;;;;28.63;14.93;;;2.50;99.90;;;;;;5031067;28;20021;-51
2023/04/05 05:37:13;;;;;;;29.52;15.20;;;2.50;99.90;;;;;;5029646;28;20485;-52
2023/04/05 05:39:38;;;;;;;29.50;15.55;;;2.50;99.90;;;;;;5030467;28;20128;-51
2023/04/05 05:42:04;;;;;;;25.77;14.98;;;2.50;99.90;;;;;;5030841;28;20116;-50
2023/04/05 05:44:30;;;;;;;33.90;15.20;;;2.60;99.90;;;;;;5030446;28;20030;-52
2023/04/05 05:46:56;;;;;;;32.78;16.20;;;2.70;99.90;;;;;;5030061;28;20036;-50
2023/04/05 05:49:22;;;;;;;40.85;17.98;;;2.70;99.90;;;;;;5030359;28;20032;-53
2023/04/05 05:51:48;;;;;;;28.15;14.27;;;2.80;99.90;;;;;;5029953;28;20025;-54
2023/04/05 05:54:14;;;;;;;23.13;13.82;;;2.90;99.90;;;;;;5030656;28;20032;-50
2023/04/05 05:56:40;;;;;;;33.30;17.02;;;2.90;99.90;;;;;;5029438;28;20033;-50
2023/04/05 05:59:06;;;;;;;37.30;18.83;;;3.00;99.90;;;;;;5030321;28;20018;-53
2023/04/05 06:01:33;;;;;;;32.80;16.75;;;3.20;99.90;;;;;;5028785;28;20046;-50
2023/04/05 06:03:59;;;;;;;30.98;17.45;;;3.40;99.90;;;;;;5029363;28;20026;-49
2023/04/05 06:06:25;;;;;;;32.17;17.35;;;3.50;99.90;;;;;;5030229;28;20017;-50
2023/04/05 06:08:51;;;;;;;35.08;18.33;;;3.60;99.90;;;;;;5030459;28;20034;-53
2023/04/05 06:11:21;;;;;;;35.60;17.95;;;3.80;99.90;;;;;;5030023;28;20068;-50
2023/04/05 06:13:48;;;;;;;32.92;18.33;;;3.90;99.90;;;;;;5030552;28;20026;-54
2023/04/05 06:16:13;;;;;;;30.05;17.17;;;4.10;99.90;;;;;;5030077;28;20056;-54
2023/04/05 06:18:40;;;;;;;35.60;17.00;;;4.30;99.90;;;;;;5029978;28;20489;-50
2023/04/05 06:21:06;;;;;;;34.13;17.05;;;4.50;99.90;;;;;;5030177;28;20082;-50
2023/04/05 06:23:31;;;;;;;34.95;17.13;;;4.70;99.90;;;;;;5030402;28;20482;-50
2023/04/05 06:25:57;;;;;;;32.72;17.48;;;4.90;99.90;;;;;;5024677;28;20506;-51
2023/04/05 06:28:22;;;;;;;35.47;18.30;;;5.10;99.90;;;;;;5029811;28;20361;-48
2023/04/05 06:30:48;;;;;;;34.15;17.77;;;5.20;99.90;;;;;;5029880;28;20159;-49
2023/04/05 06:33:13;;;;;;;30.17;17.55;;;5.60;99.90;;;;;;5029828;28;20395;-48
2023/04/05 06:35:39;;;;;;;30.70;17.23;;;5.70;99.90;;;;;;5029638;28;20052;-51
2023/04/05 06:38:05;;;;;;;30.30;16.75;;;5.80;99.90;;;;;;5031824;28;20017;-51
2023/04/05 06:40:30;;;;;;;31.95;16.10;;;5.90;99.90;;;;;;5032608;28;20140;-51
2023/04/05 06:42:56;;;;;;;30.33;16.48;;;6.10;99.90;;;;;;5036899;28;20384;-50
2023/04/05 06:45:22;;;;;;;26.90;15.35;;;6.20;99.90;;;;;;5033192;28;20048;-48
2023/04/05 06:47:48;;;;;;;26.38;15.02;;;6.30;99.90;;;;;;5025619;28;20044;-50
2023/04/05 06:50:14;;;;;;;30.65;15.98;;;6.50;99.90;;;;;;5029934;28;20030;-49
2023/04/05 06:52:39;;;;;;;29.15;15.80;;;6.50;99.90;;;;;;5033005;28;20382;-48
2023/04/05 06:55:06;;;;;;;25.50;14.95;;;6.60;99.90;;;;;;5033173;28;20076;-47
2023/04/05 06:57:33;;;;;;;23.00;13.98;;;6.70;99.90;;;;;;5032934;28;20647;-49
2023/04/05 06:59:59;;;;;;;23.20;13.90;;;6.70;99.90;;;;;;5033228;28;20041;-47
2023/04/05 07:02:24;;;;;;;22.10;14.15;;;6.80;99.90;;;;;;5032759;28;20059;-47
2023/04/05 07:04:50;;;;;;;24.55;13.88;;;7.00;99.90;;;;;;5033256;28;20140;-46
2023/04/05 07:07:16;;;;;;;28.65;15.13;;;7.10;99.90;;;;;;5029675;28;20041;-47
2023/04/05 07:09:42;;;;;;;25.23;15.15;;;7.10;99.90;;;;;;5024404;28;20054;-47
2023/04/05 07:12:08;;;;;;;25.40;14.68;;;7.20;99.90;;;;;;5033240;28;20021;-47
2023/04/05 07:14:36;;;;;;;23.15;13.70;;;7.40;99.90;;;;;;5033114;28;20366;-50
2023/04/05 07:17:05;;;;;;;23.95;14.23;;;7.60;99.90;;;;;;5031368;28;20393;-50
2023/04/05 07:19:30;;;;;;;21.45;13.50;;;7.80;99.90;;;;;;5032813;28;20026;-47
2023/04/05 07:21:56;;;;;;;21.40;13.98;;;8.10;99.90;;;;;;5032612;28;20037;-47
2023/04/05 07:24:22;;;;;;;22.25;13.95;;;8.50;99.90;;;;;;5032543;28;20389;-47
2023/04/05 07:26:47;;;;;;;23.77;13.15;;;8.90;99.90;;;;;;5031316;28;20068;-48
2023/04/05 07:29:13;;;;;;;21.90;13.13;;;9.30;99.90;;;;;;5032921;28;20029;-48
2023/04/05 07:31:39;;;;;;;24.40;13.68;;;9.60;99.90;;;;;;5032491;28;20033;-47
2023/04/05 07:34:05;;;;;;;21.27;13.35;;;10.00;99.90;;;;;;5032662;28;20029;-49
2023/04/05 07:36:31;;;;;;;23.65;14.20;;;10.30;99.90;;;;;;5032261;28;20029;-48
2023/04/05 07:38:57;;;;;;;26.05;15.00;;;10.50;99.90;;;;;;5032293;28;20602;-52
2023/04/05 07:41:30;;;;;;;24.60;14.40;;;10.60;99.90;;;;;;5032102;28;20029;-49
2023/04/05 07:43:56;;;;;;;21.13;13.20;;;10.70;99.90;;;;;;5031172;28;20045;-48
2023/04/05 07:46:22;;;;;;;25.23;13.63;;;10.90;99.90;;;;;;5030940;28;20021;-52
2023/04/05 07:48:48;;;;;;;21.80;12.70;;;11.00;99.90;;;;;;5028124;28;20028;-49
2023/04/05 07:51:14;;;;;;;22.33;12.73;;;11.20;99.90;;;;;;5031678;28;20020;-48
2023/04/05 07:53:41;;;;;;;20.70;12.90;;;11.20;99.90;;;;;;5031181;28;20559;-50
2023/04/05 07:56:08;;;;;;;19.83;12.15;;;11.30;99.90;;;;;;5032504;28;20071;-48
2023/04/05 07:58:35;;;;;;;19.33;12.27;;;11.30;99.90;;;;;;5033008;28;20041;-50
2023/04/05 08:01:02;;;;;;;22.02;13.23;;;11.30;99.90;;;;;;5033423;28;20047;-49
2023/04/05 08:03:28;;;;;;;21.67;12.95;;;11.40;99.90;;;;;;5030382;28;20030;-49
2023/04/05 08:05:54;;;;;;;20.52;12.48;;;11.60;99.90;;;;;;5032682;28;20083;-48
2023/04/05 08:08:21;;;;;;;23.70;13.23;;;11.30;99.90;;;;;;5032010;28;20021;-53
2023/04/05 08:10:46;;;;;;;19.85;13.48;;;11.60;99.90;;;;;;5020684;28;20065;-54
2023/04/05 08:13:12;;;;;;;23.73;14.35;;;11.60;99.90;;;;;;5032307;28;20072;-50
2023/04/05 08:15:38;;;;;;;22.17;13.27;;;11.70;99.90;;;;;;5032418;28;20067;-48
2023/04/05 08:18:04;;;;;;;22.85;14.43;;;11.80;99.90;;;;;;5031122;28;20025;-52
2023/04/05 08:20:30;;;;;;;23.08;13.40;;;11.80;99.90;;;;;;5031931;28;20047;-49
2023/04/05 08:22:55;;;;;;;21.25;13.63;;;11.50;99.90;;;;;;5028521;28;20030;-48
2023/04/05 08:25:21;;;;;;;24.90;15.38;;;11.50;99.90;;;;;;5031147;28;20032;-49
2023/04/05 08:27:47;;;;;;;27.80;18.13;;;11.40;99.90;;;;;;5030888;28;20026;-45
2023/04/05 08:30:12;;;;;;;24.02;16.85;;;11.30;99.90;;;;;;5032033;28;20032;-51
2023/04/05 08:32:38;;;;;;;24.45;17.60;;;11.40;99.90;;;;;;5031065;28;20025;-50
2023/04/05 08:35:04;;;;;;;28.13;17.10;;;11.70;99.90;;;;;;5027718;28;20018;-55
2023/04/05 08:37:36;;;;;;;25.33;16.52;;;11.80;99.90;;;;;;5031649;28;20029;-53
2023/04/05 08:40:03;;;;;;;22.35;15.23;;;12.00;99.90;;;;;;5031822;28;20052;-54
2023/04/05 08:42:35;;;;;;;21.60;13.35;;;12.10;99.90;;;;;;5031532;28;20025;-55
2023/04/05 08:45:03;;;;;;;22.08;13.02;;;12.10;99.90;;;;;;5031973;28;20022;-53
2023/04/05 08:47:29;;;;;;;23.75;13.93;;;12.50;99.90;;;;;;5031624;28;20029;-54
2023/04/05 08:49:55;;;;;;;20.52;12.55;;;12.80;99.90;;;;;;5031471;28;20072;-52
2023/04/05 08:52:21;;;;;;;19.83;12.10;;;13.10;99.30;;;;;;5031216;28;20436;-51
2023/04/05 08:54:47;;;;;;;19.27;11.30;;;13.40;97.60;;;;;;5031652;28;20401;-53
2023/04/05 08:57:13;;;;;;;22.83;11.85;;;13.40;96.60;;;;;;5031308;28;20156;-56
2023/04/05 08:59:42;;;;;;;17.40;10.57;;;13.50;98.00;;;;;;5034830;28;20047;-53
2023/04/05 09:02:16;;;;;;;17.77;10.43;;;13.70;96.70;;;;;;5027461;28;20086;-54
2023/04/05 09:04:43;;;;;;;16.02;8.88;;;13.80;96.30;;;;;;5032068;28;20144;-54
2023/04/05 09:07:12;;;;;;;19.10;9.63;;;13.90;95.00;;;;;;5033073;28;20032;-53
2023/04/05 09:09:38;;;;;;;16.90;9.43;;;14.00;93.60;;;;;;5031394;28;20033;-53
2023/04/05 09:12:06;;;;;;;18.80;10.90;;;14.10;93.40;;;;;;5031303;28;20029;-52
2023/04/05 09:14:33;;;;;;;14.05;9.38;;;14.20;93.60;;;;;;5030527;28;20029;-54
2023/04/05 09:17:02;;;;;;;18.95;11.02;;;14.20;92.00;;;;;;5029062;28;20029;-52
2023/04/05 09:19:28;;;;;;;19.80;10.10;;;13.80;92.90;;;;;;5029426;28;20053;-55
2023/04/05 09:22:03;;;;;;;15.68;10.10;;;13.40;92.70;;;;;;5034245;28;20076;-52
2023/04/05 09:24:38;;;;;;;18.80;10.48;;;13.30;92.70;;;;;;5035653;28;20040;-53
2023/04/05 09:27:14;;;;;;;15.93;10.23;;;13.00;94.00;;;;;;5030727;28;20083;-57
2023/04/05 09:29:44;;;;;;;17.63;10.68;;;12.80;94.10;;;;;;5034840;28;20478;-57
2023/04/05 09:32:12;;;;;;;20.92;10.60;;;12.80;94.70;;;;;;5022659;28;20040;-51
2023/04/05 09:34:39;;;;;;;16.50;10.32;;;12.70;94.90;;;;;;5027784;28;20057;-54
2023/04/05 09:37:20;;;;;;;20.92;10.52;;;12.70;95.40;;;;;;5028415;28;20048;-54
2023/04/05 09:39:51;;;;;;;17.10;10.50;;;12.70;94.80;;;;;;5027999;28;20582;-56
2023/04/05 09:42:21;;;;;;;19.17;10.38;;;12.70;95.20;;;;;;5030120;28;20033;-55
2023/04/05 09:44:53;;;;;;;16.80;10.65;;;12.60;94.80;;;;;;5026099;28;20112;-54
2023/04/05 09:47:21;;;;;;;18.23;10.25;;;12.50;95.70;;;;;;5029811;28;20056;-54
2023/04/05 09:49:46;;;;;;;15.65;10.60;;;12.50;96.50;;;;;;5025167;28;20057;-54
2023/04/05 09:52:27;;;;;;;17.88;10.77;;;12.70;95.80;;;;;;5029534;28;20612;-53
2023/04/05 09:54:55;;;;;;;17.30;11.13;;;13.00;96.90;;;;;;5030555;28;20023;-53
2023/04/05 09:57:22;;;;;;;20.42;11.55;;;13.40;95.00;;;;;;5029362;28;20365;-53
2023/04/05 09:59:47;;;;;;;20.83;12.70;;;14.00;95.60;;;;;;5029229;28;20040;-52
2023/04/05 10:02:14;;;;;;;19.30;11.20;;;14.70;93.50;;;;;;5030383;28;20473;-53
2023/04/05 10:04:42;;;;;;;19.02;11.73;;;15.10;91.00;;;;;;5030682;28;20480;-53
2023/04/05 10:07:12;;;;;;;17.85;11.20;;;15.00;90.40;;;;;;5028863;28;20017;-50
2023/04/05 10:09:39;;;;;;;15.38;11.23;;;14.90;90.50;;;;;;5028674;28;20017;-50
2023/04/05 10:12:07;;;;;;;16.17;10.48;;;14.90;90.30;;;;;;5027865;28;20112;-53
2023/04/05 10:14:37;;;;;;;16.38;10.77;;;14.70;90.20;;;;;;5028610;28;20091;-54
2023/04/05 10:17:02;;;;;;;;;;;14.70;90.80;;;;;;5029004;28;20052;-53
2023/04/05 10:19:51;;;;;;;20.25;11.50;;;14.90;90.30;;;;;;5028753;28;20340;-52
2023/04/05 10:22:24;;;;;;;22.40;11.48;;;14.80;90.30;;;;;;5028892;28;20548;-53
2023/04/05 10:24:58;;;;;;;16.55;9.63;;;15.40;88.20;;;;;;5020757;28;20040;-53
2023/04/05 10:27:32;;;;;;;13.75;9.55;;;16.00;82.70;;;;;;5030448;28;20025;-53
2023/04/05 10:30:08;;;;;;;15.80;9.10;;;15.80;82.40;;;;;;5036267;28;20026;-52
2023/04/05 10:32:45;;;;;;;15.77;10.27;;;15.70;84.20;;;;;;5030090;28;20022;-53
2023/04/05 10:35:16;;;;;;;14.82;9.35;;;15.80;87.00;;;;;;5021963;28;20025;-53
2023/04/05 10:38:05;;;;;;;15.20;9.15;;;16.20;85.30;;;;;;5030253;28;20096;-52
2023/04/05 10:40:31;;;;;;;;;;;16.60;81.50;;;;;;5020045;28;20053;-53
2023/04/05 10:42:58;;;;;;;14.23;8.77;;;16.40;78.00;;;;;;5030496;28;19909;-52
2023/04/05 10:45:26;;;;;;;13.18;8.15;;;16.40;77.90;;;;;;5030422;28;20056;-51
2023/04/05 10:48:02;;;;;;;17.58;9.23;;;16.30;76.40;;;;;;5030244;28;20037;-50
2023/04/05 10:50:28;;;;;;;16.80;9.25;;;16.70;80.00;;;;;;5030282;28;20057;-50
2023/04/05 10:52:56;;;;;;;16.13;8.90;;;16.90;78.50;;;;;;5030535;28;20018;-52
2023/04/05 10:55:22;;;;;;;14.57;8.52;;;17.20;76.10;;;;;;5030199;28;20018;-52
2023/04/05 10:57:49;;;;;;;12.80;8.70;;;17.30;76.00;;;;;;5030449;28;20105;-51
2023/04/05 11:00:16;;;;;;;16.40;9.13;;;17.50;75.70;;;;;;5029997;28;20124;-53
2023/04/05 11:02:42;;;;;;;12.88;8.48;;;17.60;74.10;;;;;;5030303;28;20104;-53
2023/04/05 11:05:32;;;;;;;16.08;8.52;;;17.80;72.00;;;;;;5029936;28;20064;-52
2023/04/05 11:08:10;;;;;;;15.27;8.05;;;18.50;73.50;;;;;;5030276;28;20075;-55
2023/04/05 11:10:37;;;;;;;13.70;8.57;;;18.90;69.10;;;;;;5030067;28;20010;-53
2023/04/05 11:13:05;;;;;;;13.52;8.20;;;18.50;66.60;;;;;;5030031;28;20048;-54
2023/04/05 11:15:32;;;;;;;16.10;8.70;;;18.00;67.80;;;;;;5030100;28;20045;-50
2023/04/05 11:18:17;;;;;;;13.50;8.68;;;17.50;69.10;;;;;;5030217;28;20045;-52
2023/04/05 11:20:51;;;;;;;14.35;8.75;;;16.80;72.70;;;;;;5029909;28;20523;-51
2023/04/05 11:23:19;;;;;;;15.80;8.80;;;16.50;72.40;;;;;;5032977;28;20037;-51
2023/04/05 11:25:48;;;;;;;15.00;8.52;;;16.50;74.00;;;;;;5033984;28;20184;-52
2023/04/05 11:28:36;;;;;;;14.63;8.50;;;16.60;71.20;;;;;;5033940;28;20216;-52
2023/04/05 11:31:19;;;;;;;15.85;8.32;;;16.50;73.50;;;;;;5032469;28;20040;-51
2023/04/05 11:33:45;;;;;;;20.85;8.50;;;16.30;72.60;;;;;;5033788;28;20117;-50
2023/04/05 11:36:11;;;;;;;16.95;8.63;;;16.20;73.20;;;;;;5033394;28;20056;-53
2023/04/05 11:38:39;;;;;;;13.23;8.05;;;16.20;75.80;;;;;;5033236;28;20094;-51
2023/04/05 11:41:16;;;;;;;14.73;8.30;;;16.10;73.90;;;;;;5033543;28;20033;-51
2023/04/05 11:43:46;;;;;;;12.85;7.70;;;16.50;74.80;;;;;;5020822;28;20048;-53
2023/04/05 11:46:14;;;;;;;17.40;8.43;;;16.50;72.40;;;;;;5033318;28;20393;-52
2023/04/05 11:48:41;;;;;;;13.65;7.70;;;17.10;74.20;;;;;;5032855;28;20032;-52
2023/04/05 11:51:11;;;;;;;15.02;7.65;;;17.80;72.40;;;;;;5033188;28;20033;-51
2023/04/05 11:53:37;;;;;;;15.57;8.25;;;18.40;68.90;;;;;;5031577;28;20063;-49
2023/04/05 11:56:11;;;;;;;13.07;8.07;;;17.60;68.50;;;;;;5031253;28;20026;-53
2023/04/05 11:58:38;;;;;;;13.27;8.35;;;17.60;69.80;;;;;;5026096;28;20029;-51
2023/04/05 12:01:07;;;;;;;14.45;8.20;;;17.40;68.90;;;;;;5023596;28;20029;-54
2023/04/05 12:03:33;;;;;;;;;;;17.30;70.90;;;;;;5033283;28;20041;-53
2023/04/05 12:06:04;;;;;;;11.02;6.97;;;17.20;72.50;;;;;;5025118;28;19963;-51
2023/04/05 12:08:40;;;;;;;12.80;6.93;;;17.30;68.30;;;;;;5026944;28;20033;-50
2023/04/05 12:11:08;;;;;;;11.45;7.00;;;17.20;69.60;;;;;;5038439;28;20409;-51
2023/04/05 12:13:34;;;;;;;10.63;6.68;;;17.30;69.60;;;;;;5032593;28;20021;-50
2023/04/05 12:16:02;;;;;;;11.25;6.00;;;17.50;70.10;;;;;;5019107;28;20053;-50
2023/04/05 12:18:30;;;;;;;10.68;6.43;;;18.00;67.10;;;;;;5032709;28;20017;-50
2023/04/05 12:20:56;;;;;;;10.48;5.80;;;17.90;65.00;;;;;;5030319;28;20412;-53
2023/04/05 12:23:23;;;;;;;9.50;5.75;;;17.40;65.50;;;;;;5032553;28;20658;-50
2023/04/05 12:25:49;;;;;;;10.95;5.82;;;17.00;68.00;;;;;;5026110;28;20033;-50
2023/04/05 12:28:15;;;;;;;11.43;6.25;;;17.10;69.10;;;;;;5028769;28;20049;-53
2023/04/05 12:30:50;;;;;;;11.13;6.13;;;17.30;70.10;;;;;;5020539;28;20064;-62
2023/04/05 12:33:28;;;;;;;9.77;6.10;;;17.20;69.10;;;;;;5041832;28;20061;-58
2023/04/05 12:35:55;;;;;;;10.37;5.60;;;17.20;72.00;;;;;;5044211;28;20025;-47
2023/04/05 12:38:25;;;;;;;7.85;5.28;;;17.80;68.10;;;;;;5032075;28;20019;-51
2023/04/05 12:40:51;;;;;;;9.32;4.95;;;18.40;65.90;;;;;;5032263;28;20403;-46